Time;durP1;ratioP1;P1;durP2;ratioP2;P2;SDS_P1;SDS_P2;PMS_P1;PMS_P2;Temp;Humidity;BMP_temperature;BMP_pressure;BME280_temperature;BME280_humidity;BME280_pressure;Samples;Min_cycle;Max_cycle;Signal;HPM_P1;HPM_P2
2021/10/21 00:01:13;;;;;;;7.78;4.53;;;;;;;;;;5069156;28;20028;-71
2021/10/21 00:03:38;;;;;;;9.15;5.03;;;;;;;;;;5051064;28;20070;-71
2021/10/21 00:06:04;;;;;;;10.70;4.80;;;;;;;;;;5050665;28;20111;-72
2021/10/21 00:08:29;;;;;;;10.45;5.18;;;;;;;;;;5068641;28;20028;-74
2021/10/21 00:10:56;;;;;;;10.35;5.68;;;;;;;;;;5068836;28;20380;-72
2021/10/21 00:13:22;;;;;;;9.35;5.15;;;;;;;;;;5070234;28;20111;-71
2021/10/21 00:15:47;;;;;;;10.13;5.07;;;;;;;;;;5089148;28;20578;-72
2021/10/21 00:18:13;;;;;;;10.38;4.72;;;;;;;;;;5071239;28;20069;-73
2021/10/21 00:20:39;;;;;;;8.70;5.65;;;;;;;;;;5089452;28;20431;-73
2021/10/21 00:23:05;;;;;;;13.80;5.55;;;;;;;;;;5089573;28;20556;-72
2021/10/21 00:25:30;;;;;;;9.98;5.10;;;;;;;;;;5089329;28;20020;-72
2021/10/21 00:27:56;;;;;;;10.85;6.10;;;;;;;;;;5089335;28;20024;-73
2021/10/21 00:30:22;;;;;;;11.13;5.32;;;;;;;;;;5070563;28;20085;-74
2021/10/21 00:32:47;;;;;;;8.35;4.93;;;;;;;;;;5089276;28;20069;-72
2021/10/21 00:35:13;;;;;;;10.18;4.93;;;;;;;;;;5089011;28;20059;-72
2021/10/21 00:37:38;;;;;;;10.02;5.78;;;;;;;;;;5071539;28;20065;-72
2021/10/21 00:40:05;;;;;;;12.57;5.22;;;;;;;;;;5092558;28;20099;-72
2021/10/21 00:42:31;;;;;;;9.40;5.30;;;;;;;;;;5074099;28;20412;-76
2021/10/21 00:44:57;;;;;;;7.72;4.32;;;;;;;;;;5092505;28;20028;-75
2021/10/21 00:47:22;;;;;;;10.43;5.15;;;;;;;;;;5073748;28;20043;-76
2021/10/21 00:49:50;;;;;;;9.57;5.57;;;;;;;;;;5073918;28;20383;-75
2021/10/21 00:52:15;;;;;;;11.32;5.43;;;;;;;;;;5090632;28;20468;-74
2021/10/21 00:54:42;;;;;;;10.00;5.43;;;;;;;;;;5073916;28;20030;-75
2021/10/21 00:57:12;;;;;;;10.95;5.70;;;;;;;;;;5073696;28;20055;-74
2021/10/21 00:59:39;;;;;;;9.55;5.15;;;;;;;;;;5092145;28;20023;-75
2021/10/21 01:02:04;;;;;;;8.77;5.30;;;;;;;;;;5073364;28;20020;-75
2021/10/21 01:04:30;;;;;;;8.90;5.32;;;;;;;;;;5091817;28;20028;-75
2021/10/21 01:06:56;;;;;;;12.55;5.35;;;;;;;;;;5091760;28;20031;-75
2021/10/21 01:09:24;;;;;;;11.07;5.68;;;;;;;;;;5072786;28;20024;-75
2021/10/21 01:11:50;;;;;;;9.23;5.22;;;;;;;;;;5073277;28;20058;-74
2021/10/21 01:14:17;;;;;;;12.82;5.10;;;;;;;;;;5091169;28;20489;-75
2021/10/21 01:16:43;;;;;;;10.57;4.97;;;;;;;;;;5073881;28;20119;-74
2021/10/21 01:19:16;;;;;;;9.98;5.10;;;;;;;;;;5091683;28;20104;-76
2021/10/21 01:21:46;;;;;;;9.25;5.25;;;;;;;;;;5091785;28;20518;-75
2021/10/21 01:24:12;;;;;;;10.55;5.70;;;;;;;;;;5091612;28;20024;-75
2021/10/21 01:26:38;;;;;;;13.73;4.97;;;;;;;;;;5091686;28;20035;-75
2021/10/21 01:29:04;;;;;;;11.38;5.68;;;;;;;;;;5091428;28;20035;-75
2021/10/21 01:31:29;;;;;;;9.60;5.53;;;;;;;;;;5091249;28;20081;-75
2021/10/21 01:33:55;;;;;;;9.98;8.90;;;;;;;;;;5091506;28;20024;-74
2021/10/21 01:36:20;;;;;;;9.98;6.53;;;;;;;;;;5073461;28;20036;-76
2021/10/21 01:38:46;;;;;;;12.32;6.32;;;;;;;;;;5091353;28;20028;-75
2021/10/21 01:41:12;;;;;;;8.27;5.13;;;;;;;;;;5091355;28;20055;-75
2021/10/21 01:43:42;;;;;;;8.95;5.18;;;;;;;;;;5073221;28;20020;-75
2021/10/21 01:46:09;;;;;;;12.23;5.95;;;;;;;;;;5091354;28;20496;-75
2021/10/21 01:48:35;;;;;;;17.42;6.80;;;;;;;;;;5091166;28;20031;-75
2021/10/21 01:51:01;;;;;;;11.10;5.45;;;;;;;;;;5072572;28;20031;-75
2021/10/21 01:53:27;;;;;;;9.98;6.32;;;;;;;;;;5090842;28;20402;-73
2021/10/21 01:55:52;;;;;;;11.13;5.38;;;;;;;;;;5090869;28;20476;-75
2021/10/21 01:58:18;;;;;;;9.80;5.68;;;;;;;;;;5072174;28;20024;-73
2021/10/21 02:00:43;;;;;;;11.07;6.57;;;;;;;;;;5090887;28;20047;-75
2021/10/21 02:03:09;;;;;;;11.18;5.45;;;;;;;;;;5090906;28;20063;-75
2021/10/21 02:05:34;;;;;;;10.50;5.25;;;;;;;;;;5072840;28;20036;-74
2021/10/21 02:08:00;;;;;;;14.20;5.20;;;;;;;;;;5072361;28;20308;-74
2021/10/21 02:10:25;;;;;;;11.02;5.50;;;;;;;;;;5090679;28;20472;-75
2021/10/21 02:12:51;;;;;;;14.00;6.93;;;;;;;;;;5091004;28;20030;-75
2021/10/21 02:15:17;;;;;;;8.43;5.13;;;;;;;;;;5072184;28;20024;-76
2021/10/21 02:17:43;;;;;;;10.75;6.07;;;;;;;;;;5072529;28;20119;-75
2021/10/21 02:20:09;;;;;;;25.63;7.07;;;;;;;;;;5072088;28;20036;-75
2021/10/21 02:22:35;;;;;;;14.40;6.45;;;;;;;;;;5090454;28;20063;-76
2021/10/21 02:25:01;;;;;;;8.95;5.38;;;;;;;;;;5090536;28;20027;-75
2021/10/21 02:27:26;;;;;;;13.95;5.88;;;;;;;;;;5090289;28;20028;-75
2021/10/21 02:29:52;;;;;;;12.35;6.05;;;;;;;;;;5090597;28;20547;-75
2021/10/21 02:32:17;;;;;;;16.48;6.05;;;;;;;;;;5090138;28;20020;-75
2021/10/21 02:34:43;;;;;;;10.20;5.88;;;;;;;;;;5072231;28;20028;-76
2021/10/21 02:37:08;;;;;;;42.00;8.35;;;;;;;;;;5090247;28;20048;-75
2021/10/21 02:39:34;;;;;;;18.38;6.82;;;;;;;;;;5072096;28;20020;-75
2021/10/21 02:42:00;;;;;;;9.52;5.90;;;;;;;;;;5090267;28;20577;-75
2021/10/21 02:44:25;;;;;;;13.50;6.38;;;;;;;;;;5089873;28;20024;-74
2021/10/21 02:46:51;;;;;;;12.65;6.80;;;;;;;;;;5090156;28;20617;-74
2021/10/21 02:49:17;;;;;;;8.40;5.93;;;;;;;;;;5089883;28;20019;-75
2021/10/21 02:51:43;;;;;;;16.15;6.85;;;;;;;;;;5090065;28;20054;-76
2021/10/21 02:54:08;;;;;;;13.13;5.90;;;;;;;;;;5089383;28;20449;-75
2021/10/21 02:56:34;;;;;;;14.43;6.43;;;;;;;;;;5071883;28;20031;-74
2021/10/21 02:58:59;;;;;;;13.00;6.28;;;;;;;;;;5071606;28;20501;-75
2021/10/21 03:01:25;;;;;;;11.95;6.32;;;;;;;;;;5089246;28;20016;-75
2021/10/21 03:03:50;;;;;;;72.60;12.55;;;;;;;;;;5089723;28;20126;-75
2021/10/21 03:06:16;;;;;;;16.95;6.30;;;;;;;;;;5071219;28;20045;-73
2021/10/21 03:08:41;;;;;;;11.75;6.18;;;;;;;;;;5089532;28;20077;-75
2021/10/21 03:11:06;;;;;;;12.73;6.65;;;;;;;;;;5088504;28;20472;-75
2021/10/21 03:13:32;;;;;;;14.43;5.95;;;;;;;;;;5089307;28;20384;-73
2021/10/21 03:15:58;;;;;;;11.27;5.85;;;;;;;;;;5088937;28;20049;-76
2021/10/21 03:18:23;;;;;;;10.77;6.05;;;;;;;;;;5071630;28;20329;-73
2021/10/21 03:20:49;;;;;;;23.83;7.10;;;;;;;;;;5090467;28;20030;-76
2021/10/21 03:23:19;;;;;;;9.95;5.43;;;;;;;;;;5092380;28;20131;-75
2021/10/21 03:25:44;;;;;;;9.98;6.05;;;;;;;;;;5090885;28;20515;-75
2021/10/21 03:28:10;;;;;;;11.57;6.18;;;;;;;;;;5089623;28;20032;-75
2021/10/21 03:30:35;;;;;;;14.02;6.72;;;;;;;;;;5089308;28;20078;-74
2021/10/21 03:33:01;;;;;;;11.70;6.70;;;;;;;;;;5089132;28;20451;-75
2021/10/21 03:35:26;;;;;;;10.60;6.38;;;;;;;;;;5070979;28;20077;-73
2021/10/21 03:37:52;;;;;;;14.80;6.45;;;;;;;;;;5071427;28;20427;-75
2021/10/21 03:40:17;;;;;;;19.60;6.50;;;;;;;;;;5089315;28;20016;-76
2021/10/21 03:42:43;;;;;;;13.68;6.45;;;;;;;;;;5089694;28;20028;-75
2021/10/21 03:45:08;;;;;;;11.32;6.30;;;;;;;;;;5089467;28;20024;-75
2021/10/21 03:47:34;;;;;;;13.43;6.32;;;;;;;;;;5088464;28;20031;-73
2021/10/21 03:49:59;;;;;;;23.13;7.70;;;;;;;;;;5068922;28;20024;-76
2021/10/21 03:52:25;;;;;;;11.13;5.85;;;;;;;;;;5068881;28;20415;-75
2021/10/21 03:54:50;;;;;;;18.65;6.82;;;;;;;;;;5068835;28;20084;-76
2021/10/21 03:57:17;;;;;;;11.45;6.35;;;;;;;;;;5068798;28;20025;-76
2021/10/21 03:59:43;;;;;;;12.15;6.13;;;;;;;;;;5069106;28;20099;-75
2021/10/21 04:02:09;;;;;;;13.20;6.95;;;;;;;;;;5068662;28;20029;-74
2021/10/21 04:04:35;;;;;;;19.50;6.88;;;;;;;;;;5068970;28;20042;-76
2021/10/21 04:07:00;;;;;;;15.30;6.35;;;;;;;;;;5070688;28;20111;-75
2021/10/21 04:09:27;;;;;;;15.77;7.90;;;;;;;;;;5069766;28;20101;-75
2021/10/21 04:11:52;;;;;;;22.60;7.78;;;;;;;;;;5089561;28;20034;-76
2021/10/21 04:14:18;;;;;;;14.73;7.82;;;;;;;;;;5092433;28;20031;-76
2021/10/21 04:16:43;;;;;;;19.30;8.13;;;;;;;;;;5074708;28;20032;-75
2021/10/21 04:19:09;;;;;;;17.55;8.10;;;;;;;;;;5093056;28;20056;-75
2021/10/21 04:21:35;;;;;;;18.52;8.10;;;;;;;;;;5092853;28;20103;-75
2021/10/21 04:24:00;;;;;;;20.20;7.57;;;;;;;;;;5093000;28;20031;-76
2021/10/21 04:26:26;;;;;;;14.13;6.38;;;;;;;;;;5092588;28;20024;-76
2021/10/21 04:28:51;;;;;;;26.48;9.40;;;;;;;;;;5093024;28;20031;-75
2021/10/21 04:31:17;;;;;;;16.05;8.20;;;;;;;;;;5073962;28;20396;-76
2021/10/21 04:33:43;;;;;;;19.02;7.72;;;;;;;;;;5074887;28;20052;-75
2021/10/21 04:36:08;;;;;;;19.50;7.35;;;;;;;;;;5092864;28;20035;-74
2021/10/21 04:38:34;;;;;;;32.55;8.68;;;;;;;;;;5092541;28;20032;-74
2021/10/21 04:40:59;;;;;;;18.52;8.88;;;;;;;;;;5092651;28;20451;-74
2021/10/21 04:43:25;;;;;;;16.83;7.78;;;;;;;;;;5074177;28;20023;-76
2021/10/21 04:45:51;;;;;;;13.45;8.30;;;;;;;;;;5074441;28;20024;-76
2021/10/21 04:48:16;;;;;;;16.30;9.05;;;;;;;;;;5073945;28;20034;-73
2021/10/21 04:50:42;;;;;;;16.25;7.72;;;;;;;;;;5092558;28;20045;-74
2021/10/21 04:53:08;;;;;;;18.10;12.05;;;;;;;;;;5073923;28;20024;-75
2021/10/21 04:55:35;;;;;;;12.80;8.68;;;;;;;;;;5092235;28;20073;-75
2021/10/21 04:58:03;;;;;;;18.88;7.20;;;;;;;;;;5092142;28;20024;-75
2021/10/21 05:00:29;;;;;;;15.82;8.77;;;;;;;;;;5091487;28;20472;-75
2021/10/21 05:02:56;;;;;;;18.77;8.73;;;;;;;;;;5073370;28;20061;-74
2021/10/21 05:05:22;;;;;;;14.43;7.65;;;;;;;;;;5073076;28;20058;-75
2021/10/21 05:07:47;;;;;;;16.73;8.68;;;;;;;;;;5091876;28;20027;-75
2021/10/21 05:10:13;;;;;;;25.20;8.90;;;;;;;;;;5091818;28;20020;-74
2021/10/21 05:12:38;;;;;;;18.45;8.32;;;;;;;;;;5091507;28;20528;-75
2021/10/21 05:15:05;;;;;;;19.00;8.63;;;;;;;;;;5091930;28;20016;-74
2021/10/21 05:17:31;;;;;;;18.05;8.88;;;;;;;;;;5091446;28;20031;-75
2021/10/21 05:19:56;;;;;;;25.25;15.50;;;;;;;;;;5091933;28;20031;-75
2021/10/21 05:22:22;;;;;;;13.73;7.65;;;;;;;;;;5073369;28;20024;-75
2021/10/21 05:24:47;;;;;;;16.20;7.55;;;;;;;;;;5091531;28;20055;-75
2021/10/21 05:27:13;;;;;;;15.40;8.52;;;;;;;;;;5091740;28;20063;-73
2021/10/21 05:29:39;;;;;;;15.52;8.65;;;;;;;;;;5063282;28;20024;-73
2021/10/21 05:32:08;;;;;;;17.08;8.82;;;;;;;;;;5071046;28;20085;-73
2021/10/21 05:34:34;;;;;;;18.27;8.45;;;;;;;;;;5070826;28;20017;-73
2021/10/21 05:37:01;;;;;;;21.20;8.25;;;;;;;;;;5071540;28;20028;-74
2021/10/21 05:39:29;;;;;;;15.15;7.35;;;;;;;;;;5070677;28;20029;-73
2021/10/21 05:41:55;;;;;;;12.93;7.63;;;;;;;;;;5053155;28;20107;-73
2021/10/21 05:44:21;;;;;;;20.83;9.27;;;;;;;;;;5052366;28;20115;-74
2021/10/21 05:46:49;;;;;;;17.02;8.68;;;;;;;;;;5052727;28;20101;-73
2021/10/21 05:49:15;;;;;;;22.52;9.38;;;;;;;;;;5052645;28;20035;-73
2021/10/21 05:51:41;;;;;;;14.25;8.70;;;;;;;;;;5070498;28;20107;-72
2021/10/21 05:54:06;;;;;;;22.67;9.20;;;;;;;;;;5070234;28;20481;-73
2021/10/21 05:56:32;;;;;;;22.90;8.57;;;;;;;;;;5070163;28;20028;-72
2021/10/21 05:58:57;;;;;;;20.67;9.50;;;;;;;;;;5052924;28;20032;-73
2021/10/21 06:01:24;;;;;;;21.00;8.70;;;;;;;;;;5052213;28;20058;-73
2021/10/21 06:03:50;;;;;;;21.95;10.70;;;;;;;;;;5070993;28;20032;-73
2021/10/21 06:06:15;;;;;;;27.75;11.90;;;;;;;;;;5070526;28;20024;-74
2021/10/21 06:08:46;;;;;;;16.40;8.82;;;;;;;;;;5069843;28;20029;-73
2021/10/21 06:11:13;;;;;;;16.08;7.40;;;;;;;;;;5048952;28;20017;-73
2021/10/21 06:13:39;;;;;;;16.48;7.85;;;;;;;;;;5057164;28;20036;-73
2021/10/21 06:16:06;;;;;;;16.90;7.15;;;;;;;;;;5063775;28;20032;-73
2021/10/21 06:18:34;;;;;;;16.63;8.07;;;;;;;;;;5065665;28;20048;-73
2021/10/21 06:21:01;;;;;;;12.82;7.05;;;;;;;;;;5047242;28;20730;-73
2021/10/21 06:23:26;;;;;;;13.43;6.75;;;;;;;;;;5062219;28;20024;-72
2021/10/21 06:25:53;;;;;;;15.48;7.95;;;;;;;;;;5047181;28;20385;-73
2021/10/21 06:28:18;;;;;;;18.95;8.80;;;;;;;;;;5063132;28;20025;-74
2021/10/21 06:30:46;;;;;;;12.73;6.75;;;;;;;;;;5061505;28;20052;-70
2021/10/21 06:33:13;;;;;;;13.82;6.45;;;;;;;;;;5046103;28;20043;-74
2021/10/21 06:35:42;;;;;;;17.00;6.28;;;;;;;;;;5063944;28;20032;-75
2021/10/21 06:38:07;;;;;;;20.25;7.10;;;;;;;;;;5031074;28;20036;-72
2021/10/21 06:40:33;;;;;;;11.50;6.60;;;;;;;;;;5062769;28;20040;-74
2021/10/21 06:42:59;;;;;;;15.48;7.28;;;;;;;;;;5040511;28;20036;-73
2021/10/21 06:45:25;;;;;;;13.32;6.80;;;;;;;;;;5044701;28;20113;-75
2021/10/21 06:47:51;;;;;;;12.98;6.63;;;;;;;;;;5046754;28;20035;-76
2021/10/21 06:50:17;;;;;;;16.83;7.55;;;;;;;;;;5046520;28;20065;-74
2021/10/21 06:52:44;;;;;;;17.60;6.90;;;;;;;;;;5063336;28;20440;-74
2021/10/21 06:55:12;;;;;;;19.60;8.00;;;;;;;;;;5045956;28;20269;-75
2021/10/21 06:57:47;;;;;;;11.10;5.90;;;;;;;;;;5046916;28;20048;-72
2021/10/21 07:00:15;;;;;;;13.98;6.70;;;;;;;;;;5064353;28;20119;-74
2021/10/21 07:02:40;;;;;;;19.98;7.65;;;;;;;;;;5029089;28;20045;-75
2021/10/21 07:05:07;;;;;;;13.63;7.50;;;;;;;;;;5043938;28;20334;-72
2021/10/21 07:07:33;;;;;;;12.52;6.25;;;;;;;;;;5045306;28;20163;-75
2021/10/21 07:10:00;;;;;;;14.15;5.93;;;;;;;;;;5046196;28;20111;-73
2021/10/21 07:12:27;;;;;;;18.20;6.32;;;;;;;;;;5038631;28;20040;-74
2021/10/21 07:14:53;;;;;;;13.85;6.35;;;;;;;;;;5038011;28;20497;-72
2021/10/21 07:17:18;;;;;;;12.32;5.75;;;;;;;;;;5059849;28;20121;-72
2021/10/21 07:19:48;;;;;;;12.95;5.00;;;;;;;;;;5061300;28;20127;-73
2021/10/21 07:22:16;;;;;;;13.45;5.45;;;;;;;;;;5071038;28;20024;-76
2021/10/21 07:24:43;;;;;;;11.30;5.47;;;;;;;;;;5039950;28;20040;-74
2021/10/21 07:27:09;;;;;;;15.02;4.93;;;;;;;;;;5043775;28;20036;-74
2021/10/21 07:29:34;;;;;;;15.10;4.43;;;;;;;;;;5045050;28;20024;-72
2021/10/21 07:32:01;;;;;;;14.98;3.58;;;;;;;;;;5036315;28;20136;-75
2021/10/21 07:34:27;;;;;;;9.60;3.83;;;;;;;;;;5025316;28;20071;-73
2021/10/21 07:36:53;;;;;;;5.57;2.92;;;;;;;;;;5025689;28;20029;-75
2021/10/21 07:39:22;;;;;;;6.45;3.03;;;;;;;;;;5023334;28;20493;-73
2021/10/21 07:41:48;;;;;;;7.60;2.65;;;;;;;;;;5031254;28;20491;-72
2021/10/21 07:44:14;;;;;;;4.03;2.28;;;;;;;;;;5026569;28;20040;-74
2021/10/21 07:46:41;;;;;;;11.00;2.75;;;;;;;;;;5025736;28;20452;-74
2021/10/21 07:49:07;;;;;;;3.83;1.90;;;;;;;;;;5033043;28;20094;-75
2021/10/21 07:51:34;;;;;;;3.97;2.20;;;;;;;;;;5041118;28;20033;-74
2021/10/21 07:54:00;;;;;;;11.73;2.00;;;;;;;;;;5037861;28;20045;-73
2021/10/21 07:56:27;;;;;;;9.82;3.47;;;;;;;;;;5035555;28;20048;-73
2021/10/21 07:58:53;;;;;;;4.68;2.30;;;;;;;;;;5037520;28;20034;-73
2021/10/21 08:01:18;;;;;;;4.05;2.15;;;;;;;;;;5035275;28;20114;-73
2021/10/21 08:03:44;;;;;;;7.30;2.47;;;;;;;;;;5029704;28;20759;-75
2021/10/21 08:06:09;;;;;;;8.88;2.45;;;;;;;;;;5028056;28;20482;-73
2021/10/21 08:08:35;;;;;;;11.82;2.83;;;;;;;;;;5032762;28;20064;-75
2021/10/21 08:11:00;;;;;;;5.90;1.88;;;;;;;;;;5035590;28;20040;-75
2021/10/21 08:13:26;;;;;;;7.40;2.10;;;;;;;;;;5034683;28;20029;-75
2021/10/21 08:15:51;;;;;;;8.23;2.13;;;;;;;;;;5035377;28;20042;-74
2021/10/21 08:18:17;;;;;;;6.38;2.25;;;;;;;;;;5036570;28;20521;-74
2021/10/21 08:20:44;;;;;;;4.78;2.22;;;;;;;;;;5038813;28;20036;-74
2021/10/21 08:23:10;;;;;;;7.82;2.08;;;;;;;;;;5034909;28;20112;-73
2021/10/21 08:25:36;;;;;;;8.20;2.30;;;;;;;;;;5035872;28;20426;-73
2021/10/21 08:28:03;;;;;;;7.53;1.90;;;;;;;;;;5038771;28;20045;-74
2021/10/21 08:30:31;;;;;;;19.50;2.95;;;;;;;;;;5038538;28;20350;-72
2021/10/21 08:32:57;;;;;;;6.05;2.20;;;;;;;;;;5045596;28;20040;-75
2021/10/21 08:35:28;;;;;;;7.35;2.88;;;;;;;;;;5044307;28;20362;-75
2021/10/21 08:37:54;;;;;;;8.87;2.77;;;;;;;;;;5043054;28;20025;-75
2021/10/21 08:40:19;;;;;;;8.98;2.78;;;;;;;;;;5043257;28;20543;-74
2021/10/21 08:42:46;;;;;;;8.75;2.67;;;;;;;;;;5041103;28;20068;-74
2021/10/21 08:45:13;;;;;;;12.95;2.58;;;;;;;;;;5034678;28;20063;-75
2021/10/21 08:47:43;;;;;;;14.35;2.47;;;;;;;;;;5039689;28;20041;-73
2021/10/21 08:50:11;;;;;;;9.30;2.63;;;;;;;;;;5042279;28;20041;-73
2021/10/21 08:52:37;;;;;;;39.58;5.43;;;;;;;;;;5040538;28;20162;-74
2021/10/21 08:55:04;;;;;;;6.22;2.85;;;;;;;;;;5038830;28;20033;-73
2021/10/21 08:57:31;;;;;;;8.27;3.08;;;;;;;;;;5039185;28;20114;-73
2021/10/21 08:59:57;;;;;;;10.02;2.40;;;;;;;;;;5042245;28;20029;-74
2021/10/21 09:02:34;;;;;;;10.27;2.38;;;;;;;;;;5043297;28;20029;-73
2021/10/21 09:05:15;;;;;;;10.45;2.42;;;;;;;;;;5041340;28;20020;-74
2021/10/21 09:07:58;;;;;;;8.98;2.70;;;;;;;;;;5033115;28;20072;-73
2021/10/21 09:10:24;;;;;;;3.67;2.03;;;;;;;;;;5038714;28;20111;-73
2021/10/21 09:12:50;;;;;;;8.60;2.60;;;;;;;;;;5042626;28;20044;-75
2021/10/21 09:15:18;;;;;;;10.20;1.70;;;;;;;;;;5040751;28;20106;-74
2021/10/21 09:17:45;;;;;;;10.15;1.80;;;;;;;;;;5040528;28;20621;-74
2021/10/21 09:20:20;;;;;;;6.82;1.67;;;;;;;;;;5039780;28;20100;-74
2021/10/21 09:22:55;;;;;;;7.65;1.83;;;;;;;;;;5040563;28;20052;-75
2021/10/21 09:25:27;;;;;;;12.70;1.58;;;;;;;;;;5040964;28;20052;-73
2021/10/21 09:27:58;;;;;;;;;;;;;;;;;;5042397;28;20037;-74
2021/10/21 09:30:33;;;;;;;3.40;1.13;;;;;;;;;;5039854;28;20333;-75
2021/10/21 09:33:06;;;;;;;13.52;1.65;;;;;;;;;;5042269;28;20075;-75
2021/10/21 09:35:35;;;;;;;7.75;1.30;;;;;;;;;;5045832;28;20021;-73
2021/10/21 09:38:01;;;;;;;21.95;2.30;;;;;;;;;;5049621;28;20032;-73
2021/10/21 09:40:32;;;;;;;6.38;1.35;;;;;;;;;;5042569;28;20048;-74
2021/10/21 09:43:04;;;;;;;5.22;1.15;;;;;;;;;;5046866;28;20021;-75
2021/10/21 09:45:34;;;;;;;11.68;1.02;;;;;;;;;;5039385;28;20129;-73
2021/10/21 09:48:01;;;;;;;6.13;1.33;;;;;;;;;;5043099;28;20033;-75
2021/10/21 09:50:32;;;;;;;11.82;1.60;;;;;;;;;;5039973;28;20696;-74
2021/10/21 09:53:22;;;;;;;8.88;0.98;;;;;;;;;;5036664;28;20071;-74
2021/10/21 09:55:48;;;;;;;8.77;2.20;;;;;;;;;;5035103;28;20866;-75
2021/10/21 09:58:16;;;;;;;6.70;0.90;;;;;;;;;;5036019;28;21318;-73
2021/10/21 10:00:43;;;;;;;11.32;1.27;;;;;;;;;;5032596;28;20029;-75
2021/10/21 10:03:14;;;;;;;5.65;1.30;;;;;;;;;;5044153;28;20098;-74
2021/10/21 10:05:42;;;;;;;11.17;1.13;;;;;;;;;;5043620;28;20028;-76
2021/10/21 10:08:09;;;;;;;11.32;1.40;;;;;;;;;;5037656;28;20452;-74
2021/10/21 10:10:39;;;;;;;9.48;1.38;;;;;;;;;;5042508;28;20633;-73
2021/10/21 10:13:05;;;;;;;3.35;0.63;;;;;;;;;;5041481;28;20037;-74
2021/10/21 10:15:34;;;;;;;9.43;1.38;;;;;;;;;;5040470;28;20059;-75
2021/10/21 10:18:00;;;;;;;8.18;1.15;;;;;;;;;;5053299;28;20033;-74
2021/10/21 10:20:26;;;;;;;6.50;1.00;;;;;;;;;;5049673;28;20051;-72
2021/10/21 10:22:53;;;;;;;4.78;1.13;;;;;;;;;;5041767;28;20451;-73
2021/10/21 10:25:20;;;;;;;10.93;1.33;;;;;;;;;;5027400;28;20040;-76
2021/10/21 10:27:57;;;;;;;3.72;0.90;;;;;;;;;;5028640;28;20029;-75
2021/10/21 10:30:40;;;;;;;13.95;1.52;;;;;;;;;;5045844;28;20064;-75
2021/10/21 10:33:06;;;;;;;115.57;6.32;;;;;;;;;;5041942;28;20112;-74
2021/10/21 10:35:34;;;;;;;12.77;1.05;;;;;;;;;;5039125;28;20028;-74
2021/10/21 10:38:09;;;;;;;14.38;1.00;;;;;;;;;;5045291;28;20032;-74
2021/10/21 10:40:46;;;;;;;9.60;0.90;;;;;;;;;;5039430;28;20024;-74
2021/10/21 10:43:15;;;;;;;3.90;0.70;;;;;;;;;;5043756;28;20120;-76
2021/10/21 10:45:47;;;;;;;19.30;1.88;;;;;;;;;;5040615;28;20036;-74
2021/10/21 10:48:14;;;;;;;12.38;1.13;;;;;;;;;;5057581;28;20394;-75
2021/10/21 10:50:43;;;;;;;20.48;1.10;;;;;;;;;;5039360;28;20047;-73
2021/10/21 10:53:10;;;;;;;21.98;1.63;;;;;;;;;;5041802;28;20231;-73
2021/10/21 10:55:37;;;;;;;7.97;0.95;;;;;;;;;;5058102;28;20133;-74
2021/10/21 10:58:03;;;;;;;17.85;1.38;;;;;;;;;;5039074;28;20039;-73
2021/10/21 11:00:59;;;;;;;14.07;0.95;;;;;;;;;;5060506;28;20064;-74
2021/10/21 11:03:51;;;;;;;7.43;0.70;;;;;;;;;;5043141;28;20409;-75
2021/10/21 11:06:25;;;;;;;9.50;0.85;;;;;;;;;;5063383;28;21410;-74
2021/10/21 11:09:08;;;;;;;11.93;0.88;;;;;;;;;;5043424;28;20090;-76
2021/10/21 11:11:50;;;;;;;9.88;2.25;;;;;;;;;;5045157;28;20036;-74
2021/10/21 11:14:20;;;;;;;11.93;1.35;;;;;;;;;;5045724;28;20033;-73
2021/10/21 11:16:47;;;;;;;5.18;0.90;;;;;;;;;;5062825;28;20042;-73
2021/10/21 11:19:42;;;;;;;11.82;0.73;;;;;;;;;;5043542;28;20036;-77
2021/10/21 11:22:20;;;;;;;5.10;0.70;;;;;;;;;;5060110;28;20055;-73
2021/10/21 11:27:12;;;;;;;11.50;0.65;;;;;;;;;;5060596;28;20540;-73
2021/10/21 11:29:38;;;;;;;4.88;0.70;;;;;;;;;;5053187;28;20146;-72
2021/10/21 11:32:08;;;;;;;16.92;2.80;;;;;;;;;;5058736;28;20524;-73
2021/10/21 11:34:35;;;;;;;9.77;1.05;;;;;;;;;;5039604;28;20051;-74
2021/10/21 11:37:01;;;;;;;10.95;0.65;;;;;;;;;;5040929;28;20051;-73
2021/10/21 11:39:34;;;;;;;8.45;0.80;;;;;;;;;;5057457;28;20033;-72
2021/10/21 11:42:07;;;;;;;10.77;0.77;;;;;;;;;;5053587;28;20032;-75
2021/10/21 11:44:34;;;;;;;6.80;0.57;;;;;;;;;;5056913;28;20111;-75
2021/10/21 11:47:02;;;;;;;4.32;0.88;;;;;;;;;;5027093;28;20045;-72
2021/10/21 11:49:33;;;;;;;6.40;1.67;;;;;;;;;;5060088;28;20115;-74
2021/10/21 11:52:05;;;;;;;2.80;0.20;;;;;;;;;;5039706;28;20101;-73
2021/10/21 11:54:31;;;;;;;8.35;0.30;;;;;;;;;;5042443;28;20701;-76
2021/10/21 11:56:57;;;;;;;7.70;0.40;;;;;;;;;;5060330;28;20033;-73
2021/10/21 11:59:52;;;;;;;9.07;0.47;;;;;;;;;;5058819;28;20037;-74
2021/10/21 12:02:20;;;;;;;4.40;0.80;;;;;;;;;;5046987;28;20110;-73
2021/10/21 12:04:47;;;;;;;6.00;0.43;;;;;;;;;;5027635;28;20044;-74
2021/10/21 12:07:13;;;;;;;2.58;0.35;;;;;;;;;;5058710;28;20037;-76
2021/10/21 12:09:41;;;;;;;3.50;0.43;;;;;;;;;;5042864;28;20043;-74
2021/10/21 12:12:12;;;;;;;5.53;0.40;;;;;;;;;;5041635;28;20032;-73
2021/10/21 12:14:41;;;;;;;;;;;;;;;;;;5019538;28;20044;-75
2021/10/21 12:17:07;;;;;;;3.47;0.60;;;;;;;;;;5025271;28;19916;-73
2021/10/21 12:19:34;;;;;;;0.85;0.30;;;;;;;;;;5021739;28;20036;-74
2021/10/21 12:22:13;;;;;;;4.47;0.50;;;;;;;;;;5056300;28;20703;-74
2021/10/21 12:24:42;;;;;;;7.47;0.55;;;;;;;;;;5052800;28;20036;-74
2021/10/21 12:27:09;;;;;;;0.90;0.30;;;;;;;;;;5060283;28;20028;-74
2021/10/21 12:29:44;;;;;;;2.90;0.30;;;;;;;;;;5040437;28;20028;-74
2021/10/21 12:32:15;;;;;;;4.30;0.55;;;;;;;;;;5060331;28;20351;-73
2021/10/21 12:34:42;;;;;;;4.93;0.50;;;;;;;;;;5043697;28;20086;-74
2021/10/21 12:37:27;;;;;;;11.13;0.77;;;;;;;;;;5032857;28;20115;-75
2021/10/21 12:39:52;;;;;;;1.05;0.75;;;;;;;;;;5043389;28;20435;-75
2021/10/21 12:42:23;;;;;;;6.28;0.68;;;;;;;;;;5053288;28;20027;-75
2021/10/21 12:44:58;;;;;;;12.10;0.63;;;;;;;;;;5031149;28;20036;-74
2021/10/21 12:47:28;;;;;;;181.45;100.80;;;;;;;;;;5030658;28;20024;-74
2021/10/21 12:49:59;;;;;;;7.18;0.90;;;;;;;;;;5042283;28;20108;-74
2021/10/21 12:52:27;;;;;;;0.85;0.40;;;;;;;;;;5036444;28;20033;-73
2021/10/21 12:55:11;;;;;;;10.82;1.60;;;;;;;;;;5061641;28;20762;-74
2021/10/21 12:57:41;;;;;;;2.75;0.45;;;;;;;;;;5060125;28;20059;-72
2021/10/21 13:00:07;;;;;;;2.22;0.40;;;;;;;;;;5041728;28;20033;-72
2021/10/21 13:02:33;;;;;;;2.80;0.40;;;;;;;;;;5068795;28;20028;-74
2021/10/21 13:04:59;;;;;;;9.40;0.50;;;;;;;;;;5067480;28;20060;-74
2021/10/21 13:07:26;;;;;;;1.95;0.40;;;;;;;;;;5038698;28;20857;-73
2021/10/21 13:09:54;;;;;;;5.38;0.65;;;;;;;;;;5040018;28;20020;-73
2021/10/21 13:12:21;;;;;;;3.78;0.30;;;;;;;;;;5063358;28;20028;-73
2021/10/21 13:14:51;;;;;;;6.70;0.73;;;;;;;;;;5041804;28;20069;-74
2021/10/21 13:17:18;;;;;;;5.35;0.40;;;;;;;;;;5065725;28;20060;-73
2021/10/21 13:19:44;;;;;;;0.80;0.30;;;;;;;;;;5060208;28;20028;-74
2021/10/21 13:22:11;;;;;;;0.43;0.43;;;;;;;;;;5063208;28;20123;-73
2021/10/21 13:24:37;;;;;;;1.13;0.63;;;;;;;;;;5037895;28;20086;-74
2021/10/21 13:27:04;;;;;;;1.48;0.13;;;;;;;;;;5043033;28;20886;-74
2021/10/21 13:29:30;;;;;;;0.55;0.40;;;;;;;;;;5065822;28;20030;-72
2021/10/21 13:31:57;;;;;;;1.98;0.40;;;;;;;;;;5081672;28;20036;-74
2021/10/21 13:34:23;;;;;;;2.03;0.45;;;;;;;;;;5060949;28;20035;-75
2021/10/21 13:36:48;;;;;;;0.52;0.52;;;;;;;;;;5063372;28;20024;-73
2021/10/21 13:39:15;;;;;;;3.20;0.68;;;;;;;;;;5063318;28;20428;-74
2021/10/21 13:41:41;;;;;;;0.40;0.40;;;;;;;;;;5038993;28;20113;-74
2021/10/21 13:44:07;;;;;;;0.55;0.43;;;;;;;;;;5063763;28;20386;-74
2021/10/21 13:46:33;;;;;;;0.63;0.40;;;;;;;;;;5079053;28;20531;-74
2021/10/21 13:49:01;;;;;;;2.17;0.50;;;;;;;;;;5081325;28;20157;-74
2021/10/21 13:51:31;;;;;;;2.65;0.60;;;;;;;;;;5081405;28;20090;-74
2021/10/21 13:53:56;;;;;;;2.22;0.35;;;;;;;;;;5082573;28;20074;-74
2021/10/21 13:56:22;;;;;;;4.80;0.93;;;;;;;;;;5066850;28;20480;-73
2021/10/21 13:58:48;;;;;;;0.82;0.40;;;;;;;;;;5067606;28;20033;-74
2021/10/21 14:01:14;;;;;;;0.52;0.35;;;;;;;;;;5049733;28;20046;-74
2021/10/21 14:03:39;;;;;;;1.63;0.40;;;;;;;;;;5065704;28;20078;-73
2021/10/21 14:06:04;;;;;;;1.33;0.50;;;;;;;;;;5056126;28;20467;-74
2021/10/21 14:08:32;;;;;;;2.70;0.65;;;;;;;;;;5053073;28;20024;-75
2021/10/21 14:10:58;;;;;;;1.55;0.60;;;;;;;;;;5047541;28;20029;-75
2021/10/21 14:13:24;;;;;;;0.77;0.50;;;;;;;;;;5052150;28;20028;-72
2021/10/21 14:15:51;;;;;;;2.38;0.60;;;;;;;;;;5051007;28;20059;-74
2021/10/21 14:18:17;;;;;;;5.53;0.65;;;;;;;;;;5064500;28;20020;-73
2021/10/21 14:20:43;;;;;;;2.65;0.45;;;;;;;;;;5048891;28;20115;-75
2021/10/21 14:23:09;;;;;;;0.90;0.60;;;;;;;;;;5063939;28;20127;-75
2021/10/21 14:25:34;;;;;;;1.45;0.50;;;;;;;;;;5056643;28;20539;-76
2021/10/21 14:28:00;;;;;;;3.70;0.80;;;;;;;;;;5064913;28;20137;-74
2021/10/21 14:30:26;;;;;;;1.27;0.60;;;;;;;;;;5047677;28;20044;-75
2021/10/21 14:32:51;;;;;;;1.45;0.60;;;;;;;;;;5049916;28;20106;-74
2021/10/21 14:35:17;;;;;;;0.80;0.40;;;;;;;;;;5050948;28;20398;-75
2021/10/21 14:37:46;;;;;;;0.57;0.45;;;;;;;;;;5041731;28;20032;-74
2021/10/21 14:40:15;;;;;;;3.60;0.57;;;;;;;;;;5046274;28;20032;-74